Time,TemperatureF,DewpointF,PressureIn,WindDirection,WindDirectionDegrees,WindSpeedMPH,WindSpeedGustMPH,Humidity,HourlyPrecipIn,Conditions,Clouds,dailyrainin,SoftwareType,DateUTC
2013-07-19 00:01:00,62.0,54.4,29.80,WSW,240,0.0,0.0,76,0.00,,---,0.00,VWS V14.01,2013-07-19 07:01:00,
2013-07-19 00:11:00,61.6,54.3,29.80,WSW,240,0.0,0.0,77,0.00,,---,0.00,VWS V14.01,2013-07-19 07:11:00,
2013-07-19 00:16:00,61.6,54.3,29.79,WSW,240,0.0,0.0,77,0.00,,---,0.00,VWS V14.01,2013-07-19 07:16:00,
2013-07-19 00:26:00,61.3,54.4,29.79,WSW,240,0.0,0.0,78,0.00,,---,0.00,VWS V14.01,2013-07-19 07:26:00,
2013-07-19 00:36:00,61.0,54.1,29.79,WSW,240,0.0,0.0,78,0.00,,---,0.00,VWS V14.01,2013-07-19 07:36:00,
2013-07-19 00:41:00,60.9,54.0,29.79,WSW,240,0.0,0.0,78,0.00,,---,0.00,VWS V14.01,2013-07-19 07:41:00,
2013-07-19 00:51:00,60.7,54.2,29.79,WSW,240,0.0,0.0,79,0.00,,---,0.00,VWS V14.01,2013-07-19 07:51:00,
2013-07-19 00:56:00,60.5,54.0,29.79,WSW,240,0.0,0.0,79,0.00,,---,0.00,VWS V14.01,2013-07-19 07:56:00,
2013-07-19 01:07:00,60.4,53.9,29.79,WSW,240,0.0,0.0,79,0.00,,---,0.00,VWS V14.01,2013-07-19 08:07:00,
2013-07-19 01:16:00,59.8,53.6,29.79,WSW,240,0.0,0.0,80,0.00,,---,0.00,VWS V14.01,2013-07-19 08:16:00,
2013-07-19 01:21:00,59.6,53.4,29.79,WSW,240,0.0,0.0,80,0.00,,---,0.00,VWS V14.01,2013-07-19 08:21:00,
2013-07-19 01:26:00,59.5,53.3,29.79,WSW,240,0.0,0.0,80,0.00,,---,0.00,VWS V14.01,2013-07-19 08:26:00,
2013-07-19 01:31:00,59.3,53.1,29.78,WSW,240,0.0,0.0,80,0.00,,---,0.00,VWS V14.01,2013-07-19 08:31:00,
2013-07-19 01:36:00,59.2,53.0,29.78,WSW,240,0.0,0.0,80,0.00,,---,0.00,VWS V14.01,2013-07-19 08:36:00,
2013-07-19 01:41:00,59.2,53.4,29.78,WSW,240,0.0,0.0,81,0.00,,---,0.00,VWS V14.01,2013-07-19 08:41:00,
2013-07-19 01:51:00,59.0,53.2,29.79,WSW,240,0.0,0.0,81,0.00,,---,0.00,VWS V14.01,2013-07-19 08:51:00,
2013-07-19 02:01:00,58.7,52.9,29.78,WSW,240,0.0,0.0,81,0.00,,---,0.00,VWS V14.01,2013-07-19 09:01:00,
2013-07-19 02:06:00,58.6,52.8,29.78,WSW,240,0.0,0.0,81,0.00,,---,0.00,VWS V14.01,2013-07-19 09:06:00,
2013-07-19 02:11:00,58.4,52.9,29.78,WSW,240,0.0,0.0,82,0.00,,---,0.00,VWS V14.01,2013-07-19 09:11:00,
2013-07-19 02:21:00,58.3,52.8,29.78,WSW,240,0.0,0.0,82,0.00,,---,0.00,VWS V14.01,2013-07-19 09:21:00,
2013-07-19 02:26:00,58.3,52.8,29.78,WSW,240,0.0,0.0,82,0.00,,---,0.00,VWS V14.01,2013-07-19 09:26:00,
2013-07-19 02:31:00,58.1,52.6,29.78,WSW,240,0.0,0.0,82,0.00,,---,0.00,VWS V14.01,2013-07-19 09:31:00,
2013-07-19 02:36:00,58.1,52.6,29.78,WSW,240,0.0,0.0,82,0.00,,---,0.00,VWS V14.01,2013-07-19 09:36:00,
2013-07-19 02:41:00,58.0,52.5,29.78,WSW,240,0.0,0.0,82,0.00,,---,0.00,VWS V14.01,2013-07-19 09:41:00,
2013-07-19 02:46:00,57.8,52.3,29.77,WSW,240,0.0,0.0,82,0.00,,---,0.00,VWS V14.01,2013-07-19 09:46:00,
2013-07-19 02:56:00,57.6,52.5,29.77,WSW,240,0.0,0.0,83,0.00,,---,0.00,VWS V14.01,2013-07-19 09:56:00,
2013-07-19 03:06:00,57.3,52.2,29.77,WSW,240,0.0,0.0,83,0.00,,---,0.00,VWS V14.01,2013-07-19 10:06:00,
2013-07-19 03:11:00,57.3,52.2,29.77,WSW,240,0.0,0.0,83,0.00,,---,0.00,VWS V14.01,2013-07-19 10:11:00,
2013-07-19 03:21:00,57.2,52.1,29.77,WSW,240,0.0,0.0,83,0.00,,---,0.00,VWS V14.01,2013-07-19 10:21:00,
2013-07-19 03:26:00,57.2,52.1,29.77,WSW,240,0.0,0.0,83,0.00,,---,0.00,VWS V14.01,2013-07-19 10:26:00,
2013-07-19 03:36:00,56.9,51.8,29.77,WSW,240,0.0,0.0,83,0.00,,---,0.00,VWS V14.01,2013-07-19 10:36:00,
2013-07-19 03:41:00,56.9,52.1,29.77,WSW,240,0.0,0.0,84,0.00,,---,0.00,VWS V14.01,2013-07-19 10:41:00,
2013-07-19 03:46:00,56.7,51.9,29.77,WSW,240,0.0,0.0,84,0.00,,---,0.00,VWS V14.01,2013-07-19 10:46:00,
2013-07-19 03:51:00,56.6,51.8,29.77,WSW,240,0.0,0.0,84,0.00,,---,0.00,VWS V14.01,2013-07-19 10:51:00,
2013-07-19 03:56:00,56.6,51.8,29.77,WSW,240,0.0,0.0,84,0.00,,---,0.00,VWS V14.01,2013-07-19 10:56:00,
2013-07-19 04:06:00,56.5,51.7,29.78,WSW,240,0.0,0.0,84,0.00,,---,0.00,VWS V14.01,2013-07-19 11:06:00,
2013-07-19 04:16:00,56.2,51.4,29.78,WSW,240,0.0,0.0,84,0.00,,---,0.00,VWS V14.01,2013-07-19 11:16:00,
2013-07-19 04:21:00,56.0,51.2,29.78,WSW,240,0.0,0.0,84,0.00,,---,0.00,VWS V14.01,2013-07-19 11:21:00,
2013-07-19 04:26:00,55.9,51.1,29.78,WSW,240,0.0,0.0,84,0.00,,---,0.00,VWS V14.01,2013-07-19 11:26:00,
2013-07-19 04:31:00,55.9,51.1,29.78,WSW,240,0.0,0.0,84,0.00,,---,0.00,VWS V14.01,2013-07-19 11:31:00,
2013-07-19 04:41:00,55.6,51.2,29.78,WSW,240,0.0,0.0,85,0.00,,---,0.00,VWS V14.01,2013-07-19 11:41:00,
2013-07-19 04:46:00,55.6,51.2,29.78,WSW,240,0.0,0.0,85,0.00,,---,0.00,VWS V14.01,2013-07-19 11:46:00,
2013-07-19 04:51:00,55.4,51.0,29.78,WSW,240,0.0,0.0,85,0.00,,---,0.00,VWS V14.01,2013-07-19 11:51:00,
2013-07-19 04:56:00,55.3,50.9,29.78,WSW,240,0.0,0.0,85,0.00,,---,0.00,VWS V14.01,2013-07-19 11:56:00,
2013-07-19 05:06:00,55.1,50.7,29.78,WSW,240,0.0,0.0,85,0.00,,---,0.00,VWS V14.01,2013-07-19 12:06:00,
2013-07-19 05:11:00,55.0,50.6,29.78,WSW,240,0.0,0.0,85,0.00,,---,0.00,VWS V14.01,2013-07-19 12:11:00,
2013-07-19 05:16:00,55.0,50.6,29.78,WSW,240,0.0,0.0,85,0.00,,---,0.00,VWS V14.01,2013-07-19 12:16:00,
2013-07-19 05:21:00,54.8,50.4,29.78,WSW,240,0.0,0.0,85,0.00,,---,0.00,VWS V14.01,2013-07-19 12:21:00,
2013-07-19 05:26:00,54.7,50.3,29.78,WSW,240,0.0,0.0,85,0.00,,---,0.00,VWS V14.01,2013-07-19 12:26:00,
2013-07-19 05:31:00,54.5,50.4,29.79,WSW,240,0.0,0.0,86,0.00,,---,0.00,VWS V14.01,2013-07-19 12:31:00,
2013-07-19 05:36:00,54.5,50.4,29.79,WSW,240,0.0,0.0,86,0.00,,---,0.00,VWS V14.01,2013-07-19 12:36:00,
2013-07-19 05:41:00,54.4,50.3,29.79,WSW,240,0.0,0.0,86,0.00,,---,0.00,VWS V14.01,2013-07-19 12:41:00,
2013-07-19 05:51:00,54.1,50.0,29.79,WSW,240,0.0,0.0,86,0.00,,---,0.00,VWS V14.01,2013-07-19 12:51:00,
2013-07-19 06:01:00,53.9,49.8,29.79,WSW,240,0.0,0.0,86,0.00,,---,0.00,VWS V14.01,2013-07-19 13:01:00,
2013-07-19 06:06:00,53.8,49.7,29.79,WSW,240,0.0,0.0,86,0.00,,---,0.00,VWS V14.01,2013-07-19 13:06:00,
2013-07-19 06:11:00,53.8,49.7,29.79,WSW,240,0.0,0.0,86,0.00,,---,0.00,VWS V14.01,2013-07-19 13:11:00,
2013-07-19 06:16:00,53.6,49.5,29.80,WSW,240,0.0,0.0,86,0.00,,---,0.00,VWS V14.01,2013-07-19 13:16:00,
2013-07-19 06:21:00,53.6,49.5,29.80,WSW,240,0.0,0.0,86,0.00,,---,0.00,VWS V14.01,2013-07-19 13:21:00,
2013-07-19 06:26:00,53.6,49.5,29.80,WSW,240,0.0,0.0,86,0.00,,---,0.00,VWS V14.01,2013-07-19 13:26:00,
2013-07-19 06:31:00,53.5,49.4,29.80,WSW,240,0.0,0.0,86,0.00,,---,0.00,VWS V14.01,2013-07-19 13:31:00,
2013-07-19 06:41:00,53.6,49.5,29.80,WSW,240,0.0,0.0,86,0.00,,---,0.00,VWS V14.01,2013-07-19 13:41:00,
2013-07-19 06:51:00,53.9,50.1,29.80,WSW,240,0.0,0.0,87,0.00,,---,0.00,VWS V14.01,2013-07-19 13:51:00,
2013-07-19 06:56:00,54.1,50.3,29.80,WSW,240,0.0,0.0,87,0.00,,---,0.00,VWS V14.01,2013-07-19 13:56:00,
2013-07-19 07:01:00,54.2,50.4,29.81,WSW,240,0.0,0.0,87,0.00,,---,0.00,VWS V14.01,2013-07-19 14:01:00,
2013-07-19 07:11:00,54.8,51.3,29.81,WSW,240,0.0,0.0,88,0.00,,---,0.00,VWS V14.01,2013-07-19 14:11:00,
2013-07-19 07:16:00,55.1,51.6,29.81,WSW,240,0.0,0.0,88,0.00,,---,0.00,VWS V14.01,2013-07-19 14:16:00,
2013-07-19 07:21:00,55.6,52.4,29.81,WSW,240,0.0,0.0,89,0.00,,---,0.00,VWS V14.01,2013-07-19 14:21:00,
2013-07-19 07:26:00,55.9,52.7,29.81,WSW,240,0.0,0.0,89,0.00,,---,0.00,VWS V14.01,2013-07-19 14:26:00,
2013-07-19 07:31:00,56.2,53.0,29.81,WSW,240,0.0,0.0,89,0.00,,---,0.00,VWS V14.01,2013-07-19 14:31:00,
2013-07-19 07:41:00,57.0,54.1,29.81,WSW,240,0.0,0.0,90,0.00,,---,0.00,VWS V14.01,2013-07-19 14:41:00,
2013-07-19 07:46:00,57.3,54.4,29.81,WSW,240,0.0,0.0,90,0.00,,---,0.00,VWS V14.01,2013-07-19 14:46:00,
2013-07-19 07:51:00,58.0,55.1,29.81,WSW,244,0.0,0.0,90,0.00,,---,0.00,VWS V14.01,2013-07-19 14:51:00,
2013-07-19 08:01:00,59.9,57.0,29.82,WSW,246,0.0,0.0,90,0.00,,---,0.00,VWS V14.01,2013-07-19 15:01:00,
2013-07-19 08:06:00,60.2,57.0,29.82,WSW,244,0.0,0.0,89,0.00,,---,0.00,VWS V14.01,2013-07-19 15:06:00,
2013-07-19 08:11:00,60.7,57.4,29.82,WSW,246,0.0,0.0,89,0.00,,---,0.00,VWS V14.01,2013-07-19 15:11:00,
2013-07-19 08:16:00,61.3,57.4,29.82,WSW,244,0.0,0.0,87,0.00,,---,0.00,VWS V14.01,2013-07-19 15:16:00,
2013-07-19 08:26:00,62.4,57.8,29.82,WSW,244,0.0,0.0,85,0.00,,---,0.00,VWS V14.01,2013-07-19 15:26:00,
2013-07-19 08:31:00,62.4,57.5,29.82,WSW,244,0.0,0.0,84,0.00,,---,0.00,VWS V14.01,2013-07-19 15:31:00,
2013-07-19 08:41:00,63.5,57.9,29.82,WSW,244,0.0,0.0,82,0.00,,---,0.00,VWS V14.01,2013-07-19 15:41:00,
2013-07-19 08:46:00,64.2,58.6,29.81,SE,138,0.0,0.0,82,0.00,,---,0.00,VWS V14.01,2013-07-19 15:46:00,
2013-07-19 08:51:00,64.5,58.2,29.81,SE,138,0.0,0.0,80,0.00,,---,0.00,VWS V14.01,2013-07-19 15:51:00,
2013-07-19 08:56:00,65.2,58.5,29.81,SE,138,0.0,0.0,79,0.00,,---,0.00,VWS V14.01,2013-07-19 15:56:00,
2013-07-19 09:01:00,65.8,59.1,29.81,SE,138,0.0,0.0,79,0.00,,---,0.00,VWS V14.01,2013-07-19 16:01:00,
2013-07-19 09:06:00,66.6,59.5,29.81,SE,138,0.0,0.0,78,0.00,,---,0.00,VWS V14.01,2013-07-19 16:06:00,
2013-07-19 09:11:00,67.6,59.4,29.81,SSE,147,0.0,0.0,75,0.00,,---,0.00,VWS V14.01,2013-07-19 16:11:00,
2013-07-19 09:21:00,68.4,59.8,29.81,SSE,147,0.0,0.0,74,0.00,,---,0.00,VWS V14.01,2013-07-19 16:21:00,
2013-07-19 09:26:00,68.9,59.5,29.81,SSE,148,0.0,0.0,72,0.00,,---,0.00,VWS V14.01,2013-07-19 16:26:00,
2013-07-19 09:31:00,69.8,59.6,29.80,SSE,148,0.0,0.0,70,0.00,,---,0.00,VWS V14.01,2013-07-19 16:31:00,
2013-07-19 09:41:00,71.3,60.2,29.80,SSE,151,0.0,0.0,68,0.00,,---,0.00,VWS V14.01,2013-07-19 16:41:00,
2013-07-19 09:46:00,71.8,59.8,29.80,SSE,160,0.0,0.0,66,0.00,,---,0.00,VWS V14.01,2013-07-19 16:46:00,
2013-07-19 09:51:00,72.5,59.6,29.80,SSW,202,0.0,0.0,64,0.00,,---,0.00,VWS V14.01,2013-07-19 16:51:00,
2013-07-19 10:01:00,73.5,60.2,29.79,WSW,241,0.0,0.0,63,0.00,,---,0.00,VWS V14.01,2013-07-19 17:01:00,
2013-07-19 10:06:00,74.2,60.8,29.79,SSW,200,0.0,0.0,63,0.00,,---,0.00,VWS V14.01,2013-07-19 17:06:00,
2013-07-19 10:11:00,74.9,60.6,29.79,SSW,199,0.0,0.0,61,0.00,,---,0.00,VWS V14.01,2013-07-19 17:11:00,
2013-07-19 10:21:00,76.0,60.2,29.79,South,178,0.0,0.0,58,0.00,,---,0.00,VWS V14.01,2013-07-19 17:21:00,
2013-07-19 10:31:00,76.5,60.6,29.79,South,178,0.0,0.0,58,0.00,,---,0.00,VWS V14.01,2013-07-19 17:31:00,
2013-07-19 10:36:00,77.4,61.0,29.79,SW,224,0.0,0.0,57,0.00,,---,0.00,VWS V14.01,2013-07-19 17:36:00,
2013-07-19 10:41:00,77.6,61.2,29.79,SW,219,0.0,0.0,57,0.00,,---,0.00,VWS V14.01,2013-07-19 17:41:00,
2013-07-19 10:51:00,77.9,61.0,29.79,SW,222,0.0,1.0,56,0.00,,---,0.00,VWS V14.01,2013-07-19 17:51:00,
2013-07-19 10:56:00,79.2,61.7,29.79,SW,230,1.0,3.0,55,0.00,,---,0.00,VWS V14.01,2013-07-19 17:56:00,
2013-07-19 11:01:00,79.0,61.0,29.79,SW,222,1.0,5.0,54,0.00,,---,0.00,VWS V14.01,2013-07-19 18:01:00,
2013-07-19 11:06:00,79.0,61.0,29.79,SW,226,0.0,1.0,54,0.00,,---,0.00,VWS V14.01,2013-07-19 18:06:00,
2013-07-19 11:11:00,79.9,61.3,29.79,SSE,162,0.0,2.0,53,0.00,,---,0.00,VWS V14.01,2013-07-19 18:11:00,
2013-07-19 11:21:00,81.6,61.2,29.79,SW,215,0.0,1.0,50,0.00,,---,0.00,VWS V14.01,2013-07-19 18:21:00,
2013-07-19 11:31:00,81.8,58.4,29.79,WSW,250,1.0,3.0,45,0.00,,---,0.00,VWS V14.01,2013-07-19 18:31:00,
2013-07-19 11:36:00,82.2,58.8,29.79,SW,230,1.0,5.0,45,0.00,,---,0.00,VWS V14.01,2013-07-19 18:36:00,
2013-07-19 11:41:00,82.8,59.9,29.79,SW,232,0.0,3.0,46,0.00,,---,0.00,VWS V14.01,2013-07-19 18:41:00,
2013-07-19 11:46:00,82.8,58.7,29.78,SW,232,2.0,6.0,44,0.00,,---,0.00,VWS V14.01,2013-07-19 18:46:00,
2013-07-19 11:56:00,83.8,60.2,29.78,SW,226,3.0,7.0,45,0.00,,---,0.00,VWS V14.01,2013-07-19 18:56:00,
2013-07-19 12:06:00,84.3,60.0,29.78,SW,215,0.0,2.0,44,0.00,,---,0.00,VWS V14.01,2013-07-19 19:06:00,
2013-07-19 12:11:00,84.5,59.6,29.78,SW,233,1.0,3.0,43,0.00,,---,0.00,VWS V14.01,2013-07-19 19:11:00,
2013-07-19 12:16:00,85.3,60.9,29.78,SW,227,0.0,2.0,44,0.00,,---,0.00,VWS V14.01,2013-07-19 19:16:00,
2013-07-19 12:21:00,85.9,60.8,29.78,WSW,254,0.0,3.0,43,0.00,,---,0.00,VWS V14.01,2013-07-19 19:21:00,
2013-07-19 12:26:00,85.7,60.7,29.78,West,268,0.0,3.0,43,0.00,,---,0.00,VWS V14.01,2013-07-19 19:26:00,
2013-07-19 12:31:00,85.7,60.7,29.78,SW,230,0.0,5.0,43,0.00,,---,0.00,VWS V14.01,2013-07-19 19:31:00,
2013-07-19 12:41:00,87.2,61.3,29.78,SW,216,1.0,5.0,42,0.00,,---,0.00,VWS V14.01,2013-07-19 19:41:00,
2013-07-19 12:51:00,87.0,60.5,29.77,SSW,202,0.0,5.0,41,0.00,,---,0.00,VWS V14.01,2013-07-19 19:51:00,
2013-07-19 12:56:00,87.4,60.8,29.77,South,188,0.0,4.0,41,0.00,,---,0.00,VWS V14.01,2013-07-19 19:56:00,
2013-07-19 13:01:00,87.2,60.7,29.77,SSW,209,0.0,6.0,41,0.00,,---,0.00,VWS V14.01,2013-07-19 20:01:00,
2013-07-19 13:11:00,86.7,59.5,29.77,WSW,247,0.0,5.0,40,0.00,,---,0.00,VWS V14.01,2013-07-19 20:11:00,
2013-07-19 13:16:00,86.7,59.5,29.77,SSW,198,2.0,7.0,40,0.00,,---,0.00,VWS V14.01,2013-07-19 20:16:00,
2013-07-19 13:21:00,86.3,61.2,29.77,SW,236,2.0,7.0,43,0.00,,---,0.00,VWS V14.01,2013-07-19 20:21:00,
2013-07-19 13:31:00,87.4,61.5,29.76,SSW,212,0.0,7.0,42,0.00,,---,0.00,VWS V14.01,2013-07-19 20:31:00,
2013-07-19 13:36:00,87.2,62.0,29.76,SW,233,0.0,8.0,43,0.00,,---,0.00,VWS V14.01,2013-07-19 20:36:00,
2013-07-19 13:41:00,86.5,62.0,29.76,SSW,196,1.0,7.0,44,0.00,,---,0.00,VWS V14.01,2013-07-19 20:41:00,
2013-07-19 13:51:00,86.5,62.0,29.76,South,189,1.0,6.0,44,0.00,,---,0.00,VWS V14.01,2013-07-19 20:51:00,
2013-07-19 13:56:00,86.5,61.4,29.76,WSW,257,0.0,5.0,43,0.00,,---,0.00,VWS V14.01,2013-07-19 20:56:00,
2013-07-19 14:01:00,86.5,61.4,29.77,WSW,239,0.0,6.0,43,0.00,,---,0.00,VWS V14.01,2013-07-19 21:01:00,
2013-07-19 14:11:00,85.7,60.7,29.77,WSW,237,0.0,7.0,43,0.00,,---,0.00,VWS V14.01,2013-07-19 21:11:00,
2013-07-19 14:21:00,86.5,61.4,29.76,West,275,0.0,5.0,43,0.00,,---,0.00,VWS V14.01,2013-07-19 21:21:00,
2013-07-19 14:31:00,86.5,60.0,29.76,West,272,0.0,8.0,41,0.00,,---,0.00,VWS V14.01,2013-07-19 21:31:00,
2013-07-19 14:36:00,85.9,60.2,29.76,SW,222,5.0,7.0,42,0.00,,---,0.00,VWS V14.01,2013-07-19 21:36:00,
2013-07-19 14:46:00,84.0,59.8,29.76,SSW,203,0.0,6.0,44,0.00,,---,0.00,VWS V14.01,2013-07-19 21:46:00,
2013-07-19 14:56:00,85.1,59.5,29.76,SSW,210,1.0,3.0,42,0.00,,---,0.00,VWS V14.01,2013-07-19 21:56:00,
2013-07-19 15:01:00,84.9,59.3,29.76,SSW,209,0.0,7.0,42,0.00,,---,0.00,VWS V14.01,2013-07-19 22:01:00,
2013-07-19 15:06:00,84.9,59.3,29.76,WSW,241,0.0,6.0,42,0.00,,---,0.00,VWS V14.01,2013-07-19 22:06:00,
2013-07-19 15:11:00,84.9,59.3,29.76,SSW,209,0.0,5.0,42,0.00,,---,0.00,VWS V14.01,2013-07-19 22:11:00,
2013-07-19 15:16:00,84.5,58.2,29.76,WSW,248,0.0,8.0,41,0.00,,---,0.00,VWS V14.01,2013-07-19 22:16:00,
2013-07-19 15:21:00,84.0,59.1,29.76,SSW,192,2.0,14.0,43,0.00,,---,0.00,VWS V14.01,2013-07-19 22:21:00,
2013-07-19 15:31:00,84.1,57.9,29.76,South,179,3.0,8.0,41,0.00,,---,0.00,VWS V14.01,2013-07-19 22:31:00,
2013-07-19 15:36:00,83.6,58.1,29.76,South,184,0.0,10.0,42,0.00,,---,0.00,VWS V14.01,2013-07-19 22:36:00,
2013-07-19 15:41:00,83.8,57.6,29.76,SSW,210,5.0,12.0,41,0.00,,---,0.00,VWS V14.01,2013-07-19 22:41:00,
2013-07-19 15:51:00,83.0,56.2,29.76,SSW,196,0.0,7.0,40,0.00,,---,0.00,VWS V14.01,2013-07-19 22:51:00,
2013-07-19 15:56:00,83.4,57.3,29.76,South,174,5.0,10.0,41,0.00,,---,0.00,VWS V14.01,2013-07-19 22:56:00,
2013-07-19 16:01:00,83.8,56.9,29.75,SW,234,0.0,6.0,40,0.00,,---,0.00,VWS V14.01,2013-07-19 23:01:00,
2013-07-19 16:11:00,83.4,57.9,29.75,WSW,254,0.0,8.0,42,0.00,,---,0.00,VWS V14.01,2013-07-19 23:11:00,
2013-07-19 16:16:00,83.6,58.1,29.75,SSW,212,0.0,7.0,42,0.00,,---,0.00,VWS V14.01,2013-07-19 23:16:00,
2013-07-19 16:21:00,84.1,57.9,29.75,SSW,212,3.0,3.0,41,0.00,,---,0.00,VWS V14.01,2013-07-19 23:21:00,
2013-07-19 16:31:00,83.6,58.1,29.75,SSW,212,1.0,10.0,42,0.00,,---,0.00,VWS V14.01,2013-07-19 23:31:00,
2013-07-19 16:36:00,83.6,58.1,29.75,SSW,202,3.0,10.0,42,0.00,,---,0.00,VWS V14.01,2013-07-19 23:36:00,
2013-07-19 16:41:00,83.6,56.8,29.75,WSW,250,0.0,10.0,40,0.00,,---,0.00,VWS V14.01,2013-07-19 23:41:00,
2013-07-19 16:51:00,83.8,57.6,29.74,SSW,206,0.0,8.0,41,0.00,,---,0.00,VWS V14.01,2013-07-19 23:51:00,
2013-07-19 17:01:00,83.8,56.9,29.74,WSW,248,5.0,7.0,40,0.00,,---,0.00,VWS V14.01,2013-07-20 00:01:00,
2013-07-19 17:06:00,83.4,55.9,29.74,WSW,258,0.0,8.0,39,0.00,,---,0.00,VWS V14.01,2013-07-20 00:06:00,
2013-07-19 17:11:00,82.6,55.9,29.74,WSW,241,1.0,2.0,40,0.00,,---,0.00,VWS V14.01,2013-07-20 00:11:00,
2013-07-19 17:21:00,82.8,56.0,29.74,WSW,244,0.0,1.0,40,0.00,,---,0.00,VWS V14.01,2013-07-20 00:21:00,
2013-07-19 17:31:00,82.6,55.9,29.73,SW,222,0.0,6.0,40,0.00,,---,0.00,VWS V14.01,2013-07-20 00:31:00,
2013-07-19 17:36:00,82.8,56.0,29.73,WSW,246,1.0,4.0,40,0.00,,---,0.00,VWS V14.01,2013-07-20 00:36:00,
2013-07-19 17:46:00,82.4,55.7,29.73,WSW,240,0.0,6.0,40,0.00,,---,0.00,VWS V14.01,2013-07-20 00:46:00,
2013-07-19 17:51:00,82.6,55.9,29.73,West,271,0.0,1.0,40,0.00,,---,0.00,VWS V14.01,2013-07-20 00:51:00,
2013-07-19 17:56:00,82.8,56.0,29.73,WSW,244,0.0,4.0,40,0.00,,---,0.00,VWS V14.01,2013-07-20 00:56:00,
2013-07-19 18:01:00,82.6,56.5,29.73,West,275,0.0,1.0,41,0.00,,---,0.00,VWS V14.01,2013-07-20 01:01:00,
2013-07-19 18:06:00,82.8,56.7,29.73,SW,234,0.0,1.0,41,0.00,,---,0.00,VWS V14.01,2013-07-20 01:06:00,
2013-07-19 18:11:00,82.6,57.2,29.73,West,260,0.0,3.0,42,0.00,,---,0.00,VWS V14.01,2013-07-20 01:11:00,
2013-07-19 18:16:00,82.2,57.5,29.73,West,267,0.0,1.0,43,0.00,,---,0.00,VWS V14.01,2013-07-20 01:16:00,
2013-07-19 18:21:00,81.8,57.1,29.73,WSW,258,0.0,1.0,43,0.00,,---,0.00,VWS V14.01,2013-07-20 01:21:00,
2013-07-19 18:26:00,81.4,57.4,29.73,SW,234,0.0,5.0,44,0.00,,---,0.00,VWS V14.01,2013-07-20 01:26:00,
2013-07-19 18:36:00,81.1,58.4,29.73,SW,232,0.0,1.0,46,0.00,,---,0.00,VWS V14.01,2013-07-20 01:36:00,
2013-07-19 18:46:00,81.1,59.6,29.73,SW,220,0.0,0.0,48,0.00,,---,0.00,VWS V14.01,2013-07-20 01:46:00,
2013-07-19 18:51:00,80.9,59.4,29.73,WSW,250,0.0,0.0,48,0.00,,---,0.00,VWS V14.01,2013-07-20 01:51:00,
2013-07-19 19:01:00,79.2,59.0,29.73,WSW,258,0.0,1.0,50,0.00,,---,0.00,VWS V14.01,2013-07-20 02:01:00,
2013-07-19 19:06:00,78.3,59.2,29.73,WSW,258,0.0,1.0,52,0.00,,---,0.00,VWS V14.01,2013-07-20 02:06:00,
2013-07-19 19:16:00,76.7,59.3,29.74,WSW,251,0.0,0.0,55,0.00,,---,0.00,VWS V14.01,2013-07-20 02:16:00,
2013-07-19 19:26:00,75.4,59.1,29.74,WSW,253,0.0,0.0,57,0.00,,---,0.00,VWS V14.01,2013-07-20 02:26:00,
2013-07-19 19:31:00,74.9,59.1,29.75,West,278,0.0,0.0,58,0.00,,---,0.00,VWS V14.01,2013-07-20 02:31:00,
2013-07-19 19:41:00,73.5,58.8,29.75,West,275,0.0,0.0,60,0.00,,---,0.00,VWS V14.01,2013-07-20 02:41:00,
2013-07-19 19:46:00,73.0,58.8,29.75,West,275,0.0,0.0,61,0.00,,---,0.00,VWS V14.01,2013-07-20 02:46:00,
2013-07-19 19:51:00,72.7,58.9,29.75,West,275,0.0,0.0,62,0.00,,---,0.00,VWS V14.01,2013-07-20 02:51:00,
2013-07-19 20:01:00,72.1,58.8,29.76,SW,234,0.0,0.0,63,0.00,,---,0.00,VWS V14.01,2013-07-20 03:01:00,
2013-07-19 20:26:00,69.9,58.0,29.76,SW,234,0.0,0.0,66,0.00,,---,0.00,VWS V14.01,2013-07-20 03:26:00,
2013-07-19 20:36:00,68.9,57.5,29.77,SW,234,0.0,0.0,67,0.00,,---,0.00,VWS V14.01,2013-07-20 03:36:00,
2013-07-19 20:41:00,68.6,57.6,29.77,SW,234,0.0,0.0,68,0.00,,---,0.00,VWS V14.01,2013-07-20 03:41:00,
2013-07-19 20:46:00,68.3,57.3,29.78,SW,234,0.0,0.0,68,0.00,,---,0.00,VWS V14.01,2013-07-20 03:46:00,
2013-07-19 20:51:00,68.1,57.2,29.78,SW,234,0.0,0.0,68,0.00,,---,0.00,VWS V14.01,2013-07-20 03:51:00,
2013-07-19 20:56:00,67.9,57.0,29.78,SW,234,0.0,0.0,68,0.00,,---,0.00,VWS V14.01,2013-07-20 03:56:00,
2013-07-19 21:01:00,67.8,56.9,29.78,SW,234,0.0,0.0,68,0.00,,---,0.00,VWS V14.01,2013-07-20 04:01:00,
2013-07-19 21:11:00,67.4,56.9,29.78,SW,234,0.0,0.0,69,0.00,,---,0.00,VWS V14.01,2013-07-20 04:11:00,
2013-07-19 21:16:00,67.3,56.8,29.78,SW,234,0.0,0.0,69,0.00,,---,0.00,VWS V14.01,2013-07-20 04:16:00,
2013-07-19 21:21:00,67.1,56.6,29.78,SW,234,0.0,0.0,69,0.00,,---,0.00,VWS V14.01,2013-07-20 04:21:00,
2013-07-19 21:26:00,66.8,56.7,29.78,SW,234,0.0,0.0,70,0.00,,---,0.00,VWS V14.01,2013-07-20 04:26:00,
2013-07-19 21:31:00,66.6,56.5,29.79,SW,234,0.0,0.0,70,0.00,,---,0.00,VWS V14.01,2013-07-20 04:31:00,
2013-07-19 21:36:00,66.3,56.6,29.79,SW,234,0.0,0.0,71,0.00,,---,0.00,VWS V14.01,2013-07-20 04:36:00,
2013-07-19 21:41:00,66.1,56.4,29.79,SW,234,0.0,0.0,71,0.00,,---,0.00,VWS V14.01,2013-07-20 04:41:00,
2013-07-19 21:46:00,65.8,56.2,29.79,SW,234,0.0,0.0,71,0.00,,---,0.00,VWS V14.01,2013-07-20 04:46:00,
2013-07-19 21:51:00,65.6,56.3,29.79,SW,234,0.0,0.0,72,0.00,,---,0.00,VWS V14.01,2013-07-20 04:51:00,
2013-07-19 21:56:00,65.3,56.0,29.79,SW,234,0.0,0.0,72,0.00,,---,0.00,VWS V14.01,2013-07-20 04:56:00,
2013-07-19 22:01:00,65.2,56.0,29.79,SW,234,0.0,0.0,72,0.00,,---,0.00,VWS V14.01,2013-07-20 05:01:00,
2013-07-19 22:06:00,65.0,55.8,29.79,SW,234,0.0,0.0,72,0.00,,---,0.00,VWS V14.01,2013-07-20 05:06:00,
2013-07-19 22:11:00,64.8,55.6,29.79,SW,234,0.0,0.0,72,0.00,,---,0.00,VWS V14.01,2013-07-20 05:11:00,
2013-07-19 22:16:00,64.7,55.9,29.79,SW,234,0.0,0.0,73,0.00,,---,0.00,VWS V14.01,2013-07-20 05:16:00,
2013-07-19 22:21:00,64.3,55.5,29.79,SW,234,0.0,0.0,73,0.00,,---,0.00,VWS V14.01,2013-07-20 05:21:00,
2013-07-19 22:31:00,64.0,55.6,29.78,SW,234,0.0,0.0,74,0.00,,---,0.00,VWS V14.01,2013-07-20 05:31:00,
2013-07-19 22:36:00,63.9,55.8,29.78,SW,234,0.0,0.0,75,0.00,,---,0.00,VWS V14.01,2013-07-20 05:36:00,
2013-07-19 22:41:00,63.7,55.6,29.78,SW,234,0.0,0.0,75,0.00,,---,0.00,VWS V14.01,2013-07-20 05:41:00,
2013-07-19 22:46:00,63.5,55.4,29.79,SW,234,0.0,0.0,75,0.00,,---,0.00,VWS V14.01,2013-07-20 05:46:00,
2013-07-19 22:56:00,63.2,55.5,29.79,SW,234,0.0,0.0,76,0.00,,---,0.00,VWS V14.01,2013-07-20 05:56:00,
2013-07-19 23:01:00,63.1,55.4,29.78,SW,234,0.0,0.0,76,0.00,,---,0.00,VWS V14.01,2013-07-20 06:01:00,
2013-07-19 23:06:00,62.7,55.4,29.78,SW,234,0.0,0.0,77,0.00,,---,0.00,VWS V14.01,2013-07-20 06:06:00,
2013-07-19 23:11:00,62.4,55.5,29.78,SW,234,0.0,0.0,78,0.00,,---,0.00,VWS V14.01,2013-07-20 06:11:00,
2013-07-19 23:16:00,62.3,55.7,29.78,SW,234,0.0,0.0,79,0.00,,---,0.00,VWS V14.01,2013-07-20 06:16:00,
2013-07-19 23:21:00,62.1,55.5,29.78,SW,234,0.0,0.0,79,0.00,,---,0.00,VWS V14.01,2013-07-20 06:21:00,
2013-07-19 23:26:00,62.0,55.8,29.78,SW,234,0.0,0.0,80,0.00,,---,0.00,VWS V14.01,2013-07-20 06:26:00,
2013-07-19 23:31:00,61.8,55.6,29.77,SW,234,0.0,0.0,80,0.00,,---,0.00,VWS V14.01,2013-07-20 06:31:00,
2013-07-19 23:36:00,61.6,55.4,29.77,SW,234,0.0,0.0,80,0.00,,---,0.00,VWS V14.01,2013-07-20 06:36:00,
2013-07-19 23:41:00,61.5,55.3,29.77,SW,234,0.0,0.0,80,0.00,,---,0.00,VWS V14.01,2013-07-20 06:41:00,
2013-07-19 23:46:00,61.3,55.1,29.77,SW,234,0.0,0.0,80,0.00,,---,0.00,VWS V14.01,2013-07-20 06:46:00,
2013-07-19 23:51:00,61.3,55.1,29.77,SW,234,0.0,0.0,80,0.00,,---,0.00,VWS V14.01,2013-07-20 06:51:00,
2013-07-19 23:56:00,61.2,55.0,29.77,SW,234,0.0,0.0,80,0.00,,---,0.00,VWS V14.01,2013-07-20 06:56:00,